Time;durP1;ratioP1;P1;durP2;ratioP2;P2;SDS_P1;SDS_P2;PMS_P1;PMS_P2;Temp;Humidity;BMP_temperature;BMP_pressure;BME280_temperature;BME280_humidity;BME280_pressure;Samples;Min_cycle;Max_cycle;Signal;HPM_P1;HPM_P2
2022/06/09 00:00:55;;;;;;;12.93;6.43;;;14.70;99.90;;;;;;4235493;28;20039;-84
2022/06/09 00:03:03;;;;;;;13.45;6.90;;;14.70;99.90;;;;;;4235854;28;20077;-84
2022/06/09 00:05:06;;;;;;;17.30;7.88;;;14.70;99.90;;;;;;4234977;28;20055;-84
2022/06/09 00:07:21;;;;;;;12.13;7.22;;;14.70;99.90;;;;;;4235012;28;20073;-84
2022/06/09 00:09:28;;;;;;;18.88;8.63;;;14.70;99.90;;;;;;4233273;28;20048;-84
2022/06/09 00:11:31;;;;;;;17.33;7.38;;;14.70;99.90;;;;;;4239061;27;20050;-84
2022/06/09 00:13:34;;;;;;;18.23;8.10;;;14.70;99.90;;;;;;4251537;27;20053;-83
2022/06/09 00:15:34;;;;;;;22.35;9.05;;;14.70;99.90;;;;;;4253511;27;20087;-84
2022/06/09 00:17:35;;;;;;;23.00;9.45;;;14.70;99.90;;;;;;4256200;27;20067;-83
2022/06/09 00:19:36;;;;;;;24.70;9.68;;;14.70;99.90;;;;;;4248328;27;20096;-83
2022/06/09 00:21:37;;;;;;;22.17;9.23;;;14.70;99.90;;;;;;4235557;27;20123;-83
2022/06/09 00:23:38;;;;;;;22.90;9.32;;;14.70;99.90;;;;;;4234203;28;20059;-83
2022/06/09 00:25:39;;;;;;;21.77;9.32;;;14.70;99.90;;;;;;4221783;28;20420;-83
2022/06/09 00:27:40;;;;;;;27.67;8.98;;;14.70;99.90;;;;;;4233560;28;20035;-83
2022/06/09 00:29:42;;;;;;;21.27;8.35;;;14.70;99.90;;;;;;4220474;28;20332;-84
2022/06/09 00:31:42;;;;;;;25.92;9.48;;;14.70;99.90;;;;;;4220401;28;20079;-83
2022/06/09 00:33:43;;;;;;;25.48;9.25;;;14.60;99.90;;;;;;4232521;28;20043;-83
2022/06/09 00:35:44;;;;;;;35.17;9.00;;;14.70;99.90;;;;;;4232404;28;20042;-83
2022/06/09 00:37:44;;;;;;;26.63;9.77;;;14.70;99.90;;;;;;4247938;27;20091;-83
2022/06/09 00:39:46;;;;;;;28.90;9.25;;;14.60;99.90;;;;;;4249051;27;20049;-83
2022/06/09 00:41:47;;;;;;;24.80;9.90;;;14.70;99.90;;;;;;4222036;28;20123;-83
2022/06/09 00:43:47;;;;;;;24.75;9.25;;;14.70;99.90;;;;;;4213751;28;20043;-83
2022/06/09 00:46:14;;;;;;;22.23;8.50;;;14.60;99.90;;;;;;4232564;28;20524;-83
2022/06/09 00:48:20;;;;;;;28.27;8.75;;;14.70;99.90;;;;;;4231409;28;20132;-83
2022/06/09 00:50:25;;;;;;;17.80;7.93;;;14.70;99.90;;;;;;4232681;28;20047;-83
2022/06/09 00:52:29;;;;;;;35.67;9.75;;;14.70;99.90;;;;;;4214199;28;20063;-85
2022/06/09 00:54:43;;;;;;;33.50;9.88;;;14.70;99.90;;;;;;4213703;28;20108;-83
2022/06/09 00:56:56;;;;;;;35.35;9.63;;;14.70;99.90;;;;;;4213790;28;20210;-83
2022/06/09 00:58:57;;;;;;;33.65;9.15;;;14.70;99.90;;;;;;4232001;28;20393;-84
2022/06/09 01:01:01;;;;;;;30.10;9.32;;;14.70;99.90;;;;;;4232248;28;20050;-84
2022/06/09 01:03:03;;;;;;;35.00;9.30;;;14.70;99.90;;;;;;4232024;28;20399;-83
2022/06/09 01:05:05;;;;;;;37.53;10.40;;;14.70;99.90;;;;;;4231771;28;20096;-83
2022/06/09 01:07:14;;;;;;;22.70;8.65;;;14.70;99.90;;;;;;4213801;28;20122;-83
2022/06/09 01:09:18;;;;;;;29.27;9.47;;;14.70;99.90;;;;;;4232223;28;20496;-83
2022/06/09 01:11:19;;;;;;;29.90;10.32;;;14.70;99.90;;;;;;4232063;28;20043;-83
2022/06/09 01:13:21;;;;;;;32.25;8.98;;;14.70;99.90;;;;;;4231391;28;20624;-83
2022/06/09 01:15:35;;;;;;;34.78;10.45;;;14.60;99.90;;;;;;4231712;28;20075;-83
2022/06/09 01:18:15;;;;;;;31.52;9.30;;;14.70;99.90;;;;;;4231829;28;20487;-83
2022/06/09 01:20:43;;;;;;;31.67;8.82;;;14.70;99.90;;;;;;4213353;28;20051;-83
2022/06/09 01:23:08;;;;;;;29.33;9.20;;;14.60;99.90;;;;;;4213733;28;20060;-83
2022/06/09 01:25:18;;;;;;;34.05;9.43;;;14.60;99.90;;;;;;4231887;28;20126;-82
2022/06/09 01:27:29;;;;;;;31.70;10.20;;;14.60;99.90;;;;;;4234506;27;20078;-82
2022/06/09 01:29:53;;;;;;;29.20;8.70;;;14.60;99.90;;;;;;4230265;28;20059;-82
2022/06/09 01:32:20;;;;;;;27.02;8.70;;;14.60;99.90;;;;;;4248643;27;20461;-83
2022/06/09 01:34:23;;;;;;;27.63;9.15;;;14.60;99.90;;;;;;4234527;27;20051;-83
2022/06/09 01:36:41;;;;;;;33.80;10.30;;;14.50;99.90;;;;;;4248636;27;20091;-84
2022/06/09 01:38:50;;;;;;;35.90;10.50;;;14.50;99.90;;;;;;4230109;28;20047;-83
2022/06/09 01:40:50;;;;;;;34.40;10.10;;;14.50;99.90;;;;;;4248142;27;20461;-84
2022/06/09 01:42:57;;;;;;;35.42;9.95;;;14.50;99.90;;;;;;4229602;28;20048;-84
2022/06/09 01:44:59;;;;;;;36.50;9.93;;;14.50;99.90;;;;;;4238198;27;20044;-83
2022/06/09 01:47:01;;;;;;;34.33;8.95;;;14.50;99.90;;;;;;4213508;28;20073;-83
2022/06/09 01:49:15;;;;;;;30.05;8.88;;;14.50;99.90;;;;;;4213063;28;20051;-83
2022/06/09 01:51:17;;;;;;;33.85;10.40;;;14.50;99.90;;;;;;4231080;28;20115;-83
2022/06/09 01:53:32;;;;;;;33.83;9.95;;;14.40;99.90;;;;;;4230742;28;20109;-84
2022/06/09 01:55:37;;;;;;;33.75;9.73;;;14.40;99.90;;;;;;4213283;28;20488;-83
2022/06/09 01:57:40;;;;;;;34.03;9.63;;;14.40;99.90;;;;;;4212981;28;20047;-84
2022/06/09 01:59:49;;;;;;;39.10;10.43;;;14.40;99.90;;;;;;4230973;27;20075;-83
2022/06/09 02:01:56;;;;;;;41.15;10.60;;;14.40;99.90;;;;;;4248229;27;20081;-84
2022/06/09 02:04:00;;;;;;;44.95;10.27;;;14.40;99.90;;;;;;4247517;27;20503;-83
2022/06/09 02:06:05;;;;;;;39.15;10.68;;;14.40;99.90;;;;;;4229687;28;20123;-83
2022/06/09 02:08:09;;;;;;;36.95;11.43;;;14.40;99.90;;;;;;4247819;27;20054;-83
2022/06/09 02:10:18;;;;;;;33.20;11.43;;;14.40;99.90;;;;;;4248016;27;20039;-83
2022/06/09 02:12:22;;;;;;;;;;;14.40;99.90;;;;;;4248399;27;20091;-83
2022/06/09 02:14:27;;;;;;;33.97;11.00;;;14.40;99.90;;;;;;4248182;27;19919;-83
2022/06/09 02:16:28;;;;;;;32.65;11.30;;;14.40;99.90;;;;;;4248020;27;20466;-83
2022/06/09 02:18:32;;;;;;;39.30;11.77;;;14.40;99.90;;;;;;4239175;27;20051;-83
2022/06/09 02:20:34;;;;;;;30.60;10.65;;;14.30;99.90;;;;;;4229757;28;20071;-83
2022/06/09 02:22:35;;;;;;;33.70;10.75;;;14.40;99.90;;;;;;4230731;28;20087;-83
2022/06/09 02:24:36;;;;;;;41.95;11.68;;;14.30;99.90;;;;;;4231266;28;20043;-83
2022/06/09 02:26:36;;;;;;;34.63;11.55;;;14.30;99.90;;;;;;4232142;28;20420;-83
2022/06/09 02:28:37;;;;;;;32.55;11.90;;;14.30;99.90;;;;;;4232324;28;20050;-84
2022/06/09 02:30:38;;;;;;;32.78;11.45;;;14.30;99.90;;;;;;4232100;28;20067;-83
2022/06/09 02:32:39;;;;;;;31.23;12.05;;;14.30;99.90;;;;;;4231025;28;20093;-83
2022/06/09 02:34:39;;;;;;;29.98;12.18;;;14.30;99.90;;;;;;4232310;28;20039;-84
2022/06/09 02:36:40;;;;;;;30.95;12.00;;;14.30;99.90;;;;;;4214072;28;20044;-83
2022/06/09 02:38:41;;;;;;;42.85;13.18;;;14.30;99.90;;;;;;4232996;28;20052;-83
2022/06/09 02:40:42;;;;;;;32.83;12.30;;;14.30;99.90;;;;;;4232344;28;20082;-83
2022/06/09 02:42:42;;;;;;;31.25;12.38;;;14.30;99.90;;;;;;4231875;28;20126;-83
2022/06/09 02:44:43;;;;;;;34.30;12.60;;;14.20;99.90;;;;;;4230293;28;20067;-83
2022/06/09 02:46:44;;;;;;;36.28;13.25;;;14.20;99.90;;;;;;4231314;28;20155;-83
2022/06/09 02:48:45;;;;;;;38.53;11.45;;;14.20;99.90;;;;;;4230765;28;20043;-83
2022/06/09 02:50:46;;;;;;;31.38;11.52;;;14.20;99.90;;;;;;4230937;28;20031;-84
2022/06/09 02:52:47;;;;;;;27.73;10.98;;;14.20;99.90;;;;;;4232729;28;20069;-83
2022/06/09 02:54:49;;;;;;;36.97;10.95;;;14.20;99.90;;;;;;4247365;28;20078;-83
2022/06/09 02:56:49;;;;;;;28.88;11.38;;;14.20;99.90;;;;;;4247282;28;20538;-83
2022/06/09 02:58:51;;;;;;;33.05;11.55;;;14.20;99.90;;;;;;4247426;28;20107;-83
2022/06/09 03:00:54;;;;;;;35.70;12.25;;;14.20;99.90;;;;;;4247575;28;20118;-83
2022/06/09 03:02:58;;;;;;;34.20;11.95;;;14.20;99.90;;;;;;4247563;28;20452;-84
2022/06/09 03:05:00;;;;;;;33.35;11.85;;;14.20;99.90;;;;;;4247524;28;20495;-84
2022/06/09 03:07:00;;;;;;;29.85;11.88;;;14.10;99.90;;;;;;4245042;28;20043;-83
2022/06/09 03:09:02;;;;;;;38.20;12.50;;;14.20;99.90;;;;;;4230564;28;20115;-84
2022/06/09 03:11:03;;;;;;;32.25;11.75;;;14.10;99.90;;;;;;4229401;28;20046;-83
2022/06/09 03:13:06;;;;;;;32.25;13.18;;;14.10;99.90;;;;;;4230530;28;20548;-84
2022/06/09 03:15:10;;;;;;;30.20;12.55;;;14.10;99.90;;;;;;4230613;28;20047;-83
2022/06/09 03:17:11;;;;;;;32.30;13.20;;;14.10;99.90;;;;;;4230551;28;20051;-83
2022/06/09 03:19:11;;;;;;;34.83;12.00;;;14.10;99.90;;;;;;4212329;28;20044;-83
2022/06/09 03:21:13;;;;;;;29.08;11.90;;;14.10;99.90;;;;;;4229807;28;20457;-83
2022/06/09 03:23:15;;;;;;;33.08;12.57;;;14.10;99.90;;;;;;4230604;28;20629;-84
2022/06/09 03:25:16;;;;;;;31.10;12.23;;;14.10;99.90;;;;;;4230638;28;20456;-83
2022/06/09 03:27:16;;;;;;;36.67;12.52;;;14.10;99.90;;;;;;4230749;28;20070;-83
2022/06/09 03:29:19;;;;;;;29.48;11.48;;;14.10;99.90;;;;;;4229223;28;20040;-83
2022/06/09 03:31:20;;;;;;;38.80;12.93;;;14.10;99.90;;;;;;4232430;28;20040;-83
2022/06/09 03:33:21;;;;;;;33.17;12.38;;;14.10;99.90;;;;;;4232446;28;20073;-83
2022/06/09 03:35:22;;;;;;;34.47;12.38;;;14.10;99.90;;;;;;4232301;28;20483;-84
2022/06/09 03:37:23;;;;;;;33.15;13.10;;;14.00;99.90;;;;;;4232854;28;20047;-83
2022/06/09 03:39:24;;;;;;;30.75;12.27;;;14.00;99.90;;;;;;4231294;28;20499;-83
2022/06/09 03:41:25;;;;;;;30.85;12.32;;;14.00;99.90;;;;;;4238102;28;20039;-83
2022/06/09 03:43:26;;;;;;;31.75;12.60;;;14.00;99.90;;;;;;4229233;28;20090;-83
2022/06/09 03:45:26;;;;;;;32.63;13.20;;;14.00;99.90;;;;;;4231521;28;20058;-83
2022/06/09 03:47:27;;;;;;;23.25;11.05;;;14.00;99.90;;;;;;4232096;28;20467;-83
2022/06/09 03:49:28;;;;;;;33.15;12.57;;;14.00;99.90;;;;;;4249881;27;20047;-83
2022/06/09 03:51:29;;;;;;;34.92;12.60;;;14.00;99.90;;;;;;4250170;27;20043;-84
2022/06/09 03:53:31;;;;;;;37.00;13.55;;;14.00;99.90;;;;;;4249847;27;20039;-83
2022/06/09 03:55:32;;;;;;;34.90;13.45;;;14.00;99.90;;;;;;4231930;28;20040;-83
2022/06/09 03:57:33;;;;;;;45.60;13.45;;;14.00;99.90;;;;;;4249077;27;20050;-83
2022/06/09 03:59:33;;;;;;;34.13;13.35;;;14.00;99.90;;;;;;4249705;27;20442;-83
2022/06/09 04:01:35;;;;;;;34.63;14.35;;;14.00;99.90;;;;;;4249584;27;20066;-84
2022/06/09 04:03:37;;;;;;;36.40;13.23;;;14.00;99.90;;;;;;4249947;27;20066;-83
2022/06/09 04:05:37;;;;;;;34.47;13.38;;;14.00;99.90;;;;;;4249947;27;20487;-83
2022/06/09 04:07:39;;;;;;;33.45;13.27;;;14.00;99.90;;;;;;4250071;27;20043;-83
2022/06/09 04:09:40;;;;;;;36.65;13.63;;;14.10;99.90;;;;;;4231311;28;20511;-83
2022/06/09 04:11:41;;;;;;;31.02;13.15;;;14.10;99.90;;;;;;4249880;27;20039;-83
2022/06/09 04:13:42;;;;;;;40.05;14.48;;;14.10;99.90;;;;;;4243917;27;20115;-83
2022/06/09 04:15:44;;;;;;;40.17;14.57;;;14.10;99.90;;;;;;4232874;28;20031;-83
2022/06/09 04:17:45;;;;;;;37.15;14.02;;;14.10;99.90;;;;;;4232793;28;20060;-83
2022/06/09 04:19:46;;;;;;;45.25;14.57;;;14.10;99.90;;;;;;4232635;28;20408;-83
2022/06/09 04:21:47;;;;;;;36.75;14.55;;;14.10;99.90;;;;;;4231841;28;20063;-84
2022/06/09 04:23:48;;;;;;;45.15;14.48;;;14.10;99.90;;;;;;4232580;28;20062;-83
2022/06/09 04:25:49;;;;;;;37.38;14.07;;;14.20;99.90;;;;;;4232505;28;20039;-83
2022/06/09 04:27:49;;;;;;;44.55;14.18;;;14.10;99.90;;;;;;4214467;28;20047;-83
2022/06/09 04:29:51;;;;;;;42.95;14.88;;;14.20;99.90;;;;;;4232367;28;20035;-82
2022/06/09 04:31:51;;;;;;;37.42;15.35;;;14.20;99.90;;;;;;4232657;27;20036;-83
2022/06/09 04:33:52;;;;;;;38.90;14.13;;;14.20;99.90;;;;;;4232678;28;20171;-83
2022/06/09 04:35:53;;;;;;;37.65;13.10;;;14.20;99.90;;;;;;4232431;28;20204;-83
2022/06/09 04:38:03;;;;;;;36.85;14.90;;;14.00;99.90;;;;;;4231371;28;20496;-83
2022/06/09 04:40:04;;;;;;;39.33;13.65;;;14.20;99.90;;;;;;4232881;28;20079;-87
2022/06/09 04:42:05;;;;;;;36.58;14.15;;;14.30;99.90;;;;;;4232546;28;20076;-83
2022/06/09 04:44:06;;;;;;;32.63;15.20;;;14.30;99.90;;;;;;4232456;28;20067;-83
2022/06/09 04:46:09;;;;;;;33.28;14.57;;;14.30;99.90;;;;;;4240714;27;20039;-83
2022/06/09 04:48:10;;;;;;;32.67;14.23;;;14.30;99.90;;;;;;4249371;27;20039;-85
2022/06/09 04:50:12;;;;;;;39.47;14.23;;;14.30;99.90;;;;;;4230010;28;20411;-84
2022/06/09 04:52:12;;;;;;;41.10;15.07;;;14.30;99.90;;;;;;4243276;27;20043;-83
2022/06/09 04:54:13;;;;;;;34.38;15.77;;;14.30;99.90;;;;;;4232393;28;20054;-84
2022/06/09 04:56:15;;;;;;;43.80;14.30;;;14.40;99.90;;;;;;4233064;27;20043;-84
2022/06/09 04:58:16;;;;;;;36.53;13.73;;;14.40;99.90;;;;;;4249432;27;20095;-84
2022/06/09 05:00:17;;;;;;;34.22;14.52;;;14.40;99.90;;;;;;4246862;27;20115;-84
2022/06/09 05:02:20;;;;;;;29.48;14.57;;;14.40;99.90;;;;;;4234530;27;20043;-83
2022/06/09 05:04:20;;;;;;;37.42;15.27;;;14.40;99.90;;;;;;4213885;28;20062;-84
2022/06/09 05:06:23;;;;;;;37.30;14.82;;;14.50;99.90;;;;;;4231898;28;20047;-84
2022/06/09 05:08:24;;;;;;;29.80;14.73;;;14.50;99.90;;;;;;4215111;28;20048;-83
2022/06/09 05:10:27;;;;;;;37.03;15.50;;;14.50;99.90;;;;;;4249006;27;20495;-84
2022/06/09 05:12:28;;;;;;;36.00;15.77;;;14.50;99.90;;;;;;4248883;27;20043;-83
2022/06/09 05:14:28;;;;;;;34.03;16.02;;;14.50;99.90;;;;;;4248313;27;20047;-83
2022/06/09 05:16:29;;;;;;;36.28;16.10;;;14.60;99.90;;;;;;4248515;27;20410;-83
2022/06/09 05:18:31;;;;;;;37.92;16.30;;;14.60;99.90;;;;;;4235651;27;20492;-83
2022/06/09 05:20:32;;;;;;;38.45;15.55;;;14.60;99.90;;;;;;4231770;28;20055;-83
2022/06/09 05:22:33;;;;;;;40.17;17.60;;;14.60;99.90;;;;;;4231464;28;20070;-83
2022/06/09 05:24:33;;;;;;;50.60;15.98;;;14.60;99.90;;;;;;4231541;28;20051;-83
2022/06/09 05:26:34;;;;;;;33.40;14.75;;;14.60;99.90;;;;;;4231175;28;20048;-83
2022/06/09 05:28:35;;;;;;;34.72;15.02;;;14.60;99.90;;;;;;4231606;28;20102;-83
2022/06/09 05:30:36;;;;;;;29.30;13.77;;;14.60;99.90;;;;;;4231869;28;20039;-83
2022/06/09 05:32:37;;;;;;;32.40;16.30;;;14.70;99.90;;;;;;4231422;28;20085;-84
2022/06/09 05:34:37;;;;;;;33.42;15.80;;;14.70;99.90;;;;;;4231586;28;20464;-84
2022/06/09 05:36:38;;;;;;;35.45;15.52;;;14.70;99.90;;;;;;4231575;28;20047;-83
2022/06/09 05:45:39;;;;;;;23.15;11.93;;;14.80;99.90;;;;;;4221115;28;20051;-84
2022/06/09 05:47:40;;;;;;;24.15;12.43;;;14.80;99.90;;;;;;4248680;27;20078;-83
2022/06/09 05:49:43;;;;;;;25.45;12.65;;;14.90;99.90;;;;;;4248378;27;20075;-83
2022/06/09 05:51:45;;;;;;;21.10;11.35;;;14.90;99.90;;;;;;4230220;28;20096;-83
2022/06/09 05:53:46;;;;;;;26.90;11.77;;;15.00;99.90;;;;;;4247577;27;20075;-83
2022/06/09 05:55:47;;;;;;;25.27;11.23;;;15.00;99.90;;;;;;4248113;27;20371;-83
2022/06/09 05:57:47;;;;;;;27.80;12.40;;;15.10;99.90;;;;;;4248957;27;20050;-85
2022/06/09 05:59:49;;;;;;;24.02;12.00;;;15.10;99.90;;;;;;4248625;27;20483;-84
2022/06/09 06:01:53;;;;;;;26.20;13.32;;;15.10;99.90;;;;;;4230775;28;20558;-84
2022/06/09 06:03:54;;;;;;;25.40;12.80;;;15.10;99.90;;;;;;4248461;27;20427;-84
2022/06/09 06:08:14;;;;;;;31.10;15.07;;;15.20;99.90;;;;;;4240383;27;20036;-85
2022/06/09 06:10:15;;;;;;;27.80;13.82;;;15.20;99.90;;;;;;4231098;28;20392;-84
2022/06/09 06:12:17;;;;;;;33.10;15.18;;;15.20;99.90;;;;;;4231991;28;20043;-83
2022/06/09 06:14:20;;;;;;;34.47;14.57;;;15.20;99.90;;;;;;4231978;28;20054;-84
2022/06/09 06:16:22;;;;;;;29.20;13.65;;;15.30;99.90;;;;;;4232337;28;20457;-84
2022/06/09 06:18:24;;;;;;;27.70;14.60;;;15.30;99.90;;;;;;4231416;28;20051;-84
2022/06/09 06:20:25;;;;;;;28.17;14.73;;;15.30;99.90;;;;;;4231201;28;20047;-84
2022/06/09 06:22:26;;;;;;;24.75;13.75;;;15.40;99.90;;;;;;4230952;28;20094;-84
2022/06/09 06:24:26;;;;;;;27.10;13.52;;;15.40;99.90;;;;;;4213427;28;20062;-84
2022/06/09 06:26:27;;;;;;;32.10;13.05;;;15.30;99.90;;;;;;4226827;28;20050;-84
2022/06/09 06:28:28;;;;;;;25.58;12.48;;;15.40;99.90;;;;;;4214009;28;20126;-84
2022/06/09 06:30:30;;;;;;;24.83;12.48;;;15.40;99.90;;;;;;4248762;27;20046;-85
2022/06/09 06:32:31;;;;;;;25.08;12.60;;;15.40;99.90;;;;;;4248279;27;20444;-85
2022/06/09 06:34:31;;;;;;;22.92;12.73;;;15.40;99.90;;;;;;4248330;27;20123;-84
2022/06/09 06:36:32;;;;;;;24.13;12.60;;;15.50;99.90;;;;;;4248031;27;20050;-84
2022/06/09 06:38:33;;;;;;;25.00;13.25;;;15.50;99.90;;;;;;4234242;28;20255;-85
2022/06/09 06:40:35;;;;;;;24.63;12.95;;;15.50;99.90;;;;;;4231015;28;20046;-84
2022/06/09 06:42:35;;;;;;;22.40;12.52;;;15.60;99.90;;;;;;4212571;28;20048;-84
2022/06/09 06:44:36;;;;;;;16.90;9.85;;;15.60;99.90;;;;;;4230856;28;20048;-84
2022/06/09 06:46:37;;;;;;;18.85;10.10;;;15.60;99.90;;;;;;4230884;28;20039;-84
2022/06/09 06:48:38;;;;;;;17.60;10.77;;;15.70;99.90;;;;;;4230929;28;20400;-85
2022/06/09 06:50:39;;;;;;;20.85;11.25;;;15.70;99.90;;;;;;4231021;28;20042;-85
2022/06/09 06:52:41;;;;;;;17.55;10.60;;;15.80;99.90;;;;;;4231378;28;20044;-84
2022/06/09 06:54:42;;;;;;;20.67;11.27;;;15.80;99.90;;;;;;4212691;28;20036;-84
2022/06/09 06:56:43;;;;;;;21.15;10.82;;;16.00;99.90;;;;;;4230888;28;20200;-84
2022/06/09 06:58:44;;;;;;;23.33;12.40;;;16.10;99.90;;;;;;4230557;28;20039;-84
2022/06/09 07:00:44;;;;;;;17.23;10.68;;;16.10;99.90;;;;;;4230830;28;20104;-84
2022/06/09 07:02:47;;;;;;;20.08;10.73;;;16.20;99.90;;;;;;4230636;28;20047;-84
2022/06/09 07:04:48;;;;;;;19.08;10.55;;;16.20;99.90;;;;;;4230796;28;20051;-83
2022/06/09 07:06:48;;;;;;;17.88;10.63;;;16.30;99.90;;;;;;4230750;28;20056;-83
2022/06/09 07:08:49;;;;;;;15.15;9.90;;;16.50;99.90;;;;;;4231045;28;20118;-85
2022/06/09 07:10:51;;;;;;;15.43;9.63;;;16.50;99.90;;;;;;4230437;28;20043;-84
2022/06/09 07:12:52;;;;;;;15.10;9.85;;;16.60;99.90;;;;;;4195576;28;20508;-84
2022/06/09 07:14:53;;;;;;;15.10;7.90;;;16.60;99.90;;;;;;4212656;28;20055;-84
2022/06/09 07:16:54;;;;;;;15.07;9.05;;;16.70;99.90;;;;;;4230922;28;20043;-83
2022/06/09 07:18:55;;;;;;;15.32;7.57;;;16.80;99.90;;;;;;4231927;28;20073;-84
2022/06/09 07:20:56;;;;;;;14.38;8.68;;;16.90;99.90;;;;;;4233755;28;20113;-84
2022/06/09 07:22:56;;;;;;;15.60;8.85;;;17.00;99.90;;;;;;4233913;28;20075;-84
2022/06/09 07:24:57;;;;;;;13.57;8.10;;;17.10;99.90;;;;;;4199256;28;20044;-84
2022/06/09 07:26:58;;;;;;;14.90;8.88;;;17.20;99.90;;;;;;4233728;28;20123;-84
2022/06/09 07:28:59;;;;;;;13.07;8.07;;;17.20;99.90;;;;;;4233878;28;20089;-84
2022/06/09 07:31:03;;;;;;;10.15;6.63;;;17.20;99.90;;;;;;4233907;28;20096;-84
2022/06/09 07:33:04;;;;;;;9.00;5.82;;;17.20;99.90;;;;;;4233556;28;20043;-83
2022/06/09 07:35:08;;;;;;;8.23;5.10;;;17.20;99.90;;;;;;4234338;28;20035;-83
2022/06/09 07:37:12;;;;;;;10.15;5.05;;;17.10;99.90;;;;;;4234242;28;20043;-85
2022/06/09 07:39:13;;;;;;;7.90;4.88;;;17.20;99.90;;;;;;4234289;28;20399;-83
2022/06/09 07:41:14;;;;;;;6.88;4.40;;;17.20;99.90;;;;;;4234544;28;20040;-84
2022/06/09 07:43:15;;;;;;;7.57;4.50;;;17.30;99.90;;;;;;4215711;28;20400;-84
2022/06/09 07:45:17;;;;;;;7.50;4.38;;;17.40;99.90;;;;;;4232930;28;20050;-84
2022/06/09 07:47:17;;;;;;;7.43;4.75;;;17.70;99.90;;;;;;4234421;28;20070;-84
2022/06/09 07:49:18;;;;;;;8.82;4.25;;;17.90;99.90;;;;;;4233731;28;20047;-83
2022/06/09 07:51:19;;;;;;;9.93;4.65;;;18.10;99.90;;;;;;4233705;28;20437;-84
2022/06/09 07:53:21;;;;;;;6.53;3.90;;;18.20;99.90;;;;;;4233771;28;20089;-84
2022/06/09 07:55:22;;;;;;;5.97;3.28;;;17.90;99.90;;;;;;4234211;28;20039;-84
2022/06/09 07:57:23;;;;;;;6.03;2.85;;;18.40;99.90;;;;;;4234246;28;20123;-84
2022/06/09 07:59:23;;;;;;;4.38;2.80;;;18.50;99.90;;;;;;4233946;28;20032;-84
2022/06/09 08:01:24;;;;;;;6.07;2.63;;;18.70;99.90;;;;;;4233982;28;20031;-84
2022/06/09 08:03:26;;;;;;;6.10;3.03;;;18.70;99.90;;;;;;4216627;28;20131;-83
2022/06/09 08:05:27;;;;;;;4.75;2.42;;;18.70;99.90;;;;;;4233907;28;20049;-83
2022/06/09 08:07:28;;;;;;;4.53;2.55;;;18.80;99.90;;;;;;4234238;28;20539;-83
2022/06/09 08:09:29;;;;;;;3.28;2.15;;;18.80;99.90;;;;;;4233778;28;20050;-83
2022/06/09 08:11:38;;;;;;;3.60;1.65;;;19.00;99.90;;;;;;4233494;28;20040;-83
2022/06/09 08:13:39;;;;;;;5.07;1.48;;;19.10;99.90;;;;;;4233763;28;20040;-83
2022/06/09 08:15:42;;;;;;;2.38;1.17;;;19.20;99.90;;;;;;4233857;28;20044;-83
2022/06/09 08:17:42;;;;;;;3.10;1.95;;;19.40;99.90;;;;;;4233319;28;20400;-83
2022/06/09 08:19:45;;;;;;;4.32;2.05;;;19.40;99.90;;;;;;4233574;28;20047;-84
2022/06/09 08:21:46;;;;;;;3.85;2.15;;;19.40;99.90;;;;;;4234000;28;20419;-84
2022/06/09 08:23:47;;;;;;;6.93;2.22;;;19.20;99.90;;;;;;4235013;28;20055;-84
2022/06/09 08:25:50;;;;;;;8.43;2.47;;;19.20;99.90;;;;;;4234247;28;20108;-84
2022/06/09 08:27:51;;;;;;;4.35;1.50;;;19.20;99.90;;;;;;4215648;28;20048;-84
2022/06/09 08:29:52;;;;;;;5.90;1.55;;;19.40;99.90;;;;;;4232930;28;20082;-84
2022/06/09 08:31:54;;;;;;;4.47;1.65;;;19.50;99.90;;;;;;4233205;28;20035;-83
2022/06/09 08:33:54;;;;;;;2.45;1.38;;;19.60;99.90;;;;;;4233229;28;20051;-83
2022/06/09 08:35:56;;;;;;;3.63;1.20;;;19.70;99.90;;;;;;4233020;28;20048;-84
2022/06/09 08:37:56;;;;;;;3.13;1.10;;;19.90;99.90;;;;;;4233003;28;20043;-83
2022/06/09 08:39:57;;;;;;;2.53;1.10;;;20.00;99.90;;;;;;4233142;28;20081;-84
2022/06/09 08:42:38;;;;;;;7.28;1.20;;;20.10;99.90;;;;;;4214730;28;20047;-84
2022/06/09 08:44:51;;;;;;;2.47;0.90;;;20.20;99.90;;;;;;4221633;28;20454;-84
2022/06/09 08:47:13;;;;;;;2.22;0.98;;;20.30;99.90;;;;;;4233474;28;20075;-84
2022/06/09 08:49:30;;;;;;;2.30;1.10;;;20.50;99.90;;;;;;4234030;28;20047;-84
2022/06/09 08:51:38;;;;;;;4.80;1.40;;;20.70;99.90;;;;;;4246834;27;20039;-84
2022/06/09 08:54:01;;;;;;;4.22;1.67;;;20.70;99.90;;;;;;4250270;27;20046;-85
2022/06/09 08:56:16;;;;;;;1.42;0.82;;;20.60;99.90;;;;;;4250528;27;20047;-84
2022/06/09 08:58:28;;;;;;;2.08;0.90;;;20.60;99.90;;;;;;4250367;27;20100;-84
2022/06/09 09:00:53;;;;;;;2.20;0.75;;;20.60;99.90;;;;;;4249563;27;20398;-82
2022/06/09 09:03:03;;;;;;;3.22;0.70;;;20.80;99.90;;;;;;4231708;28;20055;-82
2022/06/09 09:05:29;;;;;;;2.50;0.70;;;21.00;99.90;;;;;;4215742;28;20048;-82
2022/06/09 09:07:33;;;;;;;4.43;0.82;;;21.20;99.90;;;;;;4214342;28;20050;-82
2022/06/09 09:09:36;;;;;;;1.98;0.70;;;21.40;99.90;;;;;;4231506;28;20143;-82
2022/06/09 09:12:19;;;;;;;2.40;0.82;;;21.50;99.90;;;;;;4250091;27;20057;-82
2022/06/09 09:14:26;;;;;;;3.00;0.82;;;21.50;99.90;;;;;;4249339;27;20495;-82
2022/06/09 09:16:43;;;;;;;3.42;0.90;;;21.40;99.90;;;;;;4249761;27;20054;-82
2022/06/09 09:19:03;;;;;;;5.22;1.35;;;21.30;99.90;;;;;;4249753;27;20047;-82
2022/06/09 09:21:28;;;;;;;2.20;0.70;;;21.10;99.90;;;;;;4249387;27;20137;-82
2022/06/09 09:23:58;;;;;;;3.78;0.98;;;21.30;99.90;;;;;;4231369;28;20043;-82
2022/06/09 09:26:02;;;;;;;1.35;0.60;;;21.60;99.90;;;;;;4200973;28;20453;-82
2022/06/09 09:28:05;;;;;;;7.25;1.95;;;21.70;99.90;;;;;;4214121;28;20040;-82
2022/06/09 09:30:20;;;;;;;3.28;1.55;;;21.90;99.90;;;;;;4242966;27;20055;-82
2022/06/09 09:32:28;;;;;;;4.70;0.70;;;22.00;99.40;;;;;;4249765;27;20368;-82
2022/06/09 09:34:38;;;;;;;3.45;0.80;;;21.90;99.00;;;;;;4250429;27;20049;-82
2022/06/09 09:36:48;;;;;;;4.55;1.30;;;21.90;99.10;;;;;;4249873;27;20035;-82
2022/06/09 09:39:09;;;;;;;5.88;1.17;;;21.80;98.50;;;;;;4250114;27;20039;-83
2022/06/09 09:41:31;;;;;;;5.63;0.70;;;22.00;98.50;;;;;;4231840;27;20107;-83
2022/06/09 09:43:41;;;;;;;3.30;0.80;;;22.20;97.80;;;;;;4249984;27;20049;-82
2022/06/09 09:45:47;;;;;;;;;;;22.40;97.40;;;;;;4249610;27;20084;-83
2022/06/09 09:47:50;;;;;;;2.55;0.50;;;22.60;96.30;;;;;;4249133;27;19919;-82
2022/06/09 09:49:52;;;;;;;4.95;0.70;;;22.80;97.50;;;;;;4249305;27;20050;-81
2022/06/09 09:51:57;;;;;;;3.72;0.60;;;22.60;96.10;;;;;;4231464;28;20043;-81
2022/06/09 09:53:57;;;;;;;2.90;0.60;;;22.30;95.90;;;;;;4249552;27;20039;-81
2022/06/09 09:56:21;;;;;;;2.45;0.50;;;22.20;95.70;;;;;;4248710;27;20384;-82
2022/06/09 09:58:33;;;;;;;1.85;0.60;;;22.30;95.90;;;;;;4232048;28;20074;-83
2022/06/09 10:00:34;;;;;;;1.77;0.60;;;22.50;95.40;;;;;;4253046;27;20121;-83
2022/06/09 10:09:50;;;;;;;3.92;1.10;;;22.80;93.60;;;;;;4253624;27;20051;-82
2022/06/09 10:11:55;;;;;;;6.07;1.08;;;22.70;93.80;;;;;;4250136;27;20047;-82
2022/06/09 10:13:59;;;;;;;1.63;0.70;;;22.70;93.70;;;;;;4230614;28;20104;-82
2022/06/09 10:16:03;;;;;;;2.30;1.17;;;22.80;93.40;;;;;;4249093;27;20047;-82
2022/06/09 10:18:16;;;;;;;5.35;1.20;;;22.80;92.90;;;;;;4230648;28;20122;-82
2022/06/09 10:20:33;;;;;;;4.25;0.70;;;23.10;93.50;;;;;;4248870;27;20043;-82
2022/06/09 10:22:37;;;;;;;4.22;0.60;;;23.30;92.50;;;;;;4218321;28;20432;-82
2022/06/09 10:24:58;;;;;;;3.05;0.65;;;23.20;92.40;;;;;;4253302;27;20041;-81
2022/06/09 10:27:01;;;;;;;2.72;0.77;;;23.10;90.30;;;;;;4248969;27;20047;-82
2022/06/09 10:29:17;;;;;;;4.43;1.52;;;23.10;91.90;;;;;;4249272;27;20498;-81
2022/06/09 10:31:44;;;;;;;3.53;0.65;;;23.10;91.40;;;;;;4249208;27;20050;-81
2022/06/09 10:34:03;;;;;;;4.85;0.70;;;23.30;89.90;;;;;;4232168;28;20475;-82
2022/06/09 10:36:41;;;;;;;7.90;1.10;;;22.90;88.90;;;;;;4231942;28;20047;-82
2022/06/09 10:38:47;;;;;;;;;;;22.80;90.60;;;;;;4187727;28;20105;-82
2022/06/09 10:40:54;;;;;;;5.45;1.13;;;23.10;86.80;;;;;;4232646;28;19931;-81
2022/06/09 10:43:03;;;;;;;4.38;1.15;;;23.00;90.20;;;;;;4236388;28;20036;-82
2022/06/09 10:45:15;;;;;;;2.85;0.70;;;22.90;87.60;;;;;;4238819;28;20113;-82
2022/06/09 10:55:14;;;;;;;3.92;0.52;;;23.50;90.70;;;;;;4233638;28;20051;-82
2022/06/09 10:57:25;;;;;;;2.25;0.68;;;23.80;88.90;;;;;;4236255;28;20093;-82
2022/06/09 10:59:50;;;;;;;2.08;0.70;;;24.00;85.60;;;;;;4237086;28;20047;-83
2022/06/09 11:01:51;;;;;;;3.42;1.02;;;23.90;83.60;;;;;;4237719;28;20047;-82
2022/06/09 11:03:52;;;;;;;4.72;0.50;;;24.10;86.20;;;;;;4237389;28;20039;-82